createdAt,value
2022-11-20T00:01:53.197Z,21.70
2022-11-20T00:03:56.855Z,22.75
2022-11-20T00:06:05.877Z,23.92
2022-11-20T00:08:07.772Z,25.58
2022-11-20T00:10:09.941Z,26.98
2022-11-20T00:12:11.945Z,26.42
2022-11-20T00:16:17.671Z,22.80
2022-11-20T00:18:19.517Z,22.95
2022-11-20T00:20:21.366Z,21.67
2022-11-20T00:22:23.250Z,22.70
2022-11-20T00:24:25.087Z,20.38
2022-11-20T00:26:28.096Z,19.00
2022-11-20T00:28:29.925Z,19.50
2022-11-20T00:30:31.777Z,20.48
2022-11-20T00:32:33.878Z,21.30
2022-11-20T00:36:37.497Z,18.90
2022-11-20T00:38:39.428Z,18.65
2022-11-20T00:40:41.298Z,20.63
2022-11-20T00:42:43.121Z,18.15
2022-11-20T00:44:44.943Z,19.45
2022-11-20T00:46:46.813Z,18.25
2022-11-20T00:48:48.721Z,16.35
2022-11-20T00:50:50.592Z,20.55
2022-11-20T00:52:53.130Z,18.80
2022-11-20T00:54:55.140Z,20.02
2022-11-20T00:56:57.062Z,19.90
2022-11-20T01:01:13.224Z,18.60
2022-11-20T01:03:15.153Z,18.00
2022-11-20T01:05:17.075Z,16.85
2022-11-20T01:07:18.977Z,19.75
2022-11-20T01:09:21.237Z,18.10
2022-11-20T01:11:28.901Z,17.30
2022-11-20T01:13:38.416Z,15.60
2022-11-20T01:15:40.311Z,16.92
2022-11-20T01:17:42.175Z,16.48
2022-11-20T01:19:43.990Z,17.45
2022-11-20T01:21:47.267Z,17.58
2022-11-20T01:23:50.307Z,16.45
2022-11-20T01:25:52.513Z,16.35
2022-11-20T01:27:54.486Z,15.32
2022-11-20T01:32:03.167Z,15.15
2022-11-20T01:34:09.547Z,14.65
2022-11-20T01:36:12.875Z,14.73
2022-11-20T01:38:17.465Z,16.02
2022-11-20T01:40:19.345Z,14.15
2022-11-20T01:42:39.782Z,15.98
2022-11-20T01:44:52.511Z,15.27
2022-11-20T01:47:00.219Z,15.88
2022-11-20T01:49:19.965Z,16.42
2022-11-20T01:51:50.032Z,16.70
2022-11-20T01:53:54.724Z,14.18
2022-11-20T01:56:00.029Z,14.13
2022-11-20T01:58:03.155Z,13.75
2022-11-20T02:00:09.587Z,14.02
2022-11-20T02:02:11.618Z,15.15
2022-11-20T02:08:20.310Z,13.63
2022-11-20T02:10:22.235Z,13.80
2022-11-20T02:12:42.734Z,15.57
2022-11-20T02:14:44.602Z,16.38
2022-11-20T02:16:48.503Z,15.45
2022-11-20T02:18:51.585Z,17.77
2022-11-20T02:21:10.238Z,18.15
2022-11-20T02:23:45.817Z,16.73
2022-11-20T02:25:48.903Z,16.13
2022-11-20T02:27:51.779Z,17.40
2022-11-20T02:30:02.845Z,17.10
2022-11-20T02:32:04.901Z,17.55
2022-11-20T02:36:12.672Z,14.82
2022-11-20T02:38:15.482Z,14.05
2022-11-20T02:40:17.733Z,17.27
2022-11-20T02:42:20.122Z,16.80
2022-11-20T02:44:22.076Z,16.27
2022-11-20T02:46:23.942Z,18.10
2022-11-20T02:48:26.802Z,17.35
2022-11-20T02:50:30.120Z,18.42
2022-11-20T02:52:32.263Z,19.15
2022-11-20T02:54:34.331Z,19.17
2022-11-20T02:58:40.350Z,19.60
2022-11-20T03:00:43.446Z,18.58
2022-11-20T03:02:45.913Z,19.05
2022-11-20T03:04:47.836Z,20.70
2022-11-20T03:06:49.684Z,20.88
2022-11-20T03:08:51.514Z,23.33
2022-11-20T03:10:53.543Z,21.60
2022-11-20T03:14:58.293Z,19.60
2022-11-20T03:17:00.123Z,19.70
2022-11-20T03:19:02.345Z,21.17
2022-11-20T03:21:04.479Z,19.73
2022-11-20T03:23:06.835Z,18.65
2022-11-20T03:25:08.772Z,19.52
2022-11-20T03:27:10.592Z,21.05
2022-11-20T03:29:12.466Z,21.63
2022-11-20T03:31:16.956Z,21.05
2022-11-20T03:33:18.795Z,24.65
2022-11-20T03:35:20.776Z,26.90
2022-11-20T03:39:24.578Z,24.55
2022-11-20T03:41:28.778Z,27.98
2022-11-20T03:43:30.623Z,28.88
2022-11-20T03:45:32.494Z,23.17
2022-11-20T03:47:34.418Z,24.52
2022-11-20T03:49:36.220Z,21.85
2022-11-20T03:51:38.221Z,20.85
2022-11-20T03:55:43.615Z,17.90
2022-11-20T03:57:45.473Z,16.63
2022-11-20T03:59:47.370Z,22.05
2022-11-20T04:01:49.708Z,22.42
2022-11-20T04:03:54.647Z,19.50
2022-11-20T04:05:56.515Z,20.50
2022-11-20T04:07:59.152Z,22.00
2022-11-20T04:10:00.953Z,21.10
2022-11-20T04:12:02.828Z,22.83
2022-11-20T04:14:07.040Z,23.45
2022-11-20T04:16:10.498Z,24.33
2022-11-20T04:18:12.341Z,23.02
2022-11-20T04:20:14.192Z,19.58
2022-11-20T04:22:16.002Z,22.83
2022-11-20T04:24:17.908Z,24.17
2022-11-20T04:26:20.685Z,19.58
2022-11-20T04:28:22.492Z,21.10
2022-11-20T04:30:24.410Z,22.25
2022-11-20T04:32:26.287Z,22.60
2022-11-20T04:34:28.137Z,21.25
2022-11-20T04:36:30.639Z,23.63
2022-11-20T04:38:32.893Z,23.55
2022-11-20T04:40:34.717Z,22.40
2022-11-20T04:42:36.692Z,22.73
2022-11-20T04:46:42.886Z,19.40
2022-11-20T04:48:45.089Z,22.27
2022-11-20T04:50:47.151Z,24.48
2022-11-20T04:54:53.892Z,21.50
2022-11-20T04:56:55.739Z,20.67
2022-11-20T04:59:01.808Z,22.42
2022-11-20T05:01:17.422Z,21.70
2022-11-20T05:03:19.278Z,20.75
2022-11-20T05:05:21.247Z,21.75
2022-11-20T05:07:23.196Z,23.67
2022-11-20T05:11:26.805Z,18.58
2022-11-20T05:13:28.983Z,24.23
2022-11-20T05:15:30.807Z,22.02
2022-11-20T05:17:32.757Z,22.67
2022-11-20T05:19:34.609Z,21.58
2022-11-20T05:21:36.410Z,20.83
2022-11-20T05:23:39.056Z,20.88
2022-11-20T05:25:40.904Z,18.58
2022-11-20T05:27:43.604Z,20.02
2022-11-20T05:29:45.433Z,22.25
2022-11-20T05:31:47.283Z,24.38
2022-11-20T05:33:49.136Z,24.63
2022-11-20T05:35:50.962Z,24.00
2022-11-20T05:37:53.048Z,23.80
2022-11-20T05:39:54.929Z,23.23
2022-11-20T05:42:15.412Z,27.15
2022-11-20T05:44:17.268Z,25.52
2022-11-20T05:46:27.823Z,29.23
2022-11-20T05:48:31.427Z,31.08
2022-11-20T05:50:33.367Z,31.00
2022-11-20T05:52:35.205Z,32.05
2022-11-20T05:54:37.024Z,32.47
2022-11-20T05:56:38.877Z,29.55
2022-11-20T05:58:41.501Z,31.05
2022-11-20T06:00:43.345Z,30.80
2022-11-20T06:02:45.256Z,30.80
2022-11-20T06:04:47.196Z,29.02
2022-11-20T06:06:49.025Z,30.75
2022-11-20T06:08:51.061Z,28.92
2022-11-20T06:12:54.653Z,24.17
2022-11-20T06:14:56.509Z,26.60
2022-11-20T06:16:58.467Z,26.33
2022-11-20T06:21:12.421Z,27.23
2022-11-20T06:25:16.160Z,27.98
2022-11-20T06:27:18.039Z,22.73
2022-11-20T06:29:20.226Z,26.40
2022-11-20T06:31:24.531Z,24.95
2022-11-20T06:33:26.875Z,26.60
2022-11-20T06:35:28.726Z,23.58
2022-11-20T06:37:30.572Z,25.23
2022-11-20T06:39:32.437Z,23.48
2022-11-20T06:41:34.314Z,24.65
2022-11-20T06:43:36.201Z,28.95
2022-11-20T06:45:38.480Z,26.27
2022-11-20T06:47:40.351Z,24.27
2022-11-20T06:49:42.271Z,26.90
2022-11-20T06:51:44.119Z,24.27
2022-11-20T06:53:46.173Z,26.48
2022-11-20T06:57:54.808Z,27.67
2022-11-20T06:59:57.778Z,25.73
2022-11-20T07:02:00.068Z,29.40
2022-11-20T07:04:02.053Z,28.23
2022-11-20T07:08:06.577Z,29.15
2022-11-20T07:10:08.978Z,28.42
2022-11-20T07:12:10.787Z,22.63
2022-11-20T07:14:12.603Z,23.23
2022-11-20T07:16:14.489Z,28.38
2022-11-20T07:18:16.366Z,27.75
2022-11-20T07:20:18.195Z,27.48
2022-11-20T07:22:22.653Z,30.77
2022-11-20T07:24:24.497Z,28.63
2022-11-20T07:26:26.380Z,25.40
2022-11-20T07:28:28.231Z,25.88
2022-11-20T07:30:30.703Z,24.10
2022-11-20T07:32:32.555Z,26.85
2022-11-20T07:34:34.514Z,29.95
2022-11-20T07:36:36.523Z,32.25
2022-11-20T07:40:40.599Z,28.08
2022-11-20T07:42:53.026Z,29.48
2022-11-20T07:44:54.847Z,30.50
2022-11-20T07:46:56.730Z,29.77
2022-11-20T07:48:58.587Z,26.05
2022-11-20T07:51:00.406Z,28.42
2022-11-20T07:53:04.333Z,25.83
2022-11-20T07:55:06.979Z,25.05
2022-11-20T07:57:08.859Z,24.15
2022-11-20T07:59:12.856Z,28.40
2022-11-20T08:01:14.807Z,27.35
2022-11-20T08:05:26.119Z,26.48
2022-11-20T08:07:27.970Z,28.55
2022-11-20T08:09:30.026Z,26.75
2022-11-20T08:14:10.445Z,24.17
2022-11-20T08:16:12.255Z,25.98
2022-11-20T08:18:31.857Z,22.88
2022-11-20T08:20:36.182Z,25.83
2022-11-20T08:22:38.032Z,22.13
2022-11-20T08:24:39.982Z,22.75
2022-11-20T08:26:42.638Z,21.98
2022-11-20T08:28:45.043Z,21.38
2022-11-20T08:30:47.021Z,18.65
2022-11-20T08:34:50.811Z,18.40
2022-11-20T08:38:56.491Z,17.92
2022-11-20T08:41:18.693Z,18.83
2022-11-20T08:43:20.585Z,20.83
2022-11-20T08:45:22.546Z,18.63
2022-11-20T08:49:26.120Z,19.40
2022-11-20T08:51:27.952Z,19.20
2022-11-20T08:53:29.831Z,20.85
2022-11-20T08:55:31.788Z,22.30
2022-11-20T09:00:04.571Z,19.85
2022-11-20T09:01:58.328Z,20.05
2022-11-20T09:04:00.863Z,19.63
2022-11-20T09:06:07.281Z,20.98
2022-11-20T09:08:09.314Z,22.10
2022-11-20T09:12:26.403Z,20.30
2022-11-20T09:14:30.231Z,20.58
2022-11-20T09:16:32.103Z,20.92
2022-11-20T09:18:36.999Z,19.83
2022-11-20T09:20:38.961Z,21.10
2022-11-20T09:24:43.821Z,22.13
2022-11-20T09:26:45.770Z,21.63
2022-11-20T09:30:49.395Z,21.40
2022-11-20T09:32:51.576Z,13.90
2022-11-20T09:34:53.388Z,21.92
2022-11-20T09:36:55.236Z,20.88
2022-11-20T09:38:57.862Z,20.58
2022-11-20T09:41:05.468Z,22.05
2022-11-20T09:43:33.604Z,21.10
2022-11-20T09:45:48.777Z,21.00
2022-11-20T09:48:25.800Z,20.92
2022-11-20T09:50:44.432Z,19.90
2022-11-20T09:53:06.964Z,19.13
2022-11-20T09:55:13.527Z,19.23
2022-11-20T09:57:22.740Z,18.92
2022-11-20T09:59:44.258Z,20.70
2022-11-20T10:01:46.815Z,22.43
2022-11-20T10:03:59.938Z,19.42
2022-11-20T10:06:04.718Z,21.48
2022-11-20T10:08:21.256Z,22.75
2022-11-20T10:10:53.609Z,20.15
2022-11-20T10:15:43.196Z,23.90
2022-11-20T10:17:51.041Z,27.30
2022-11-20T10:20:20.814Z,29.88
2022-11-20T10:22:45.728Z,27.02
2022-11-20T10:25:02.227Z,21.17
2022-11-20T10:27:21.417Z,26.05
2022-11-20T10:29:39.218Z,25.95
2022-11-20T10:31:57.149Z,25.98
2022-11-20T10:34:22.741Z,24.27
2022-11-20T10:36:34.608Z,26.05
2022-11-20T10:38:42.076Z,24.25
2022-11-20T10:40:53.718Z,24.00
2022-11-20T10:43:09.303Z,26.15
2022-11-20T10:45:25.915Z,26.00
2022-11-20T10:47:31.067Z,18.83
2022-11-20T10:49:35.575Z,27.25
2022-11-20T10:52:01.784Z,25.95
2022-11-20T10:54:31.679Z,26.67
2022-11-20T10:56:38.574Z,21.75
2022-11-20T10:58:55.558Z,21.50
2022-11-20T11:01:14.536Z,22.30
2022-11-20T11:03:29.925Z,24.63
2022-11-20T11:05:42.838Z,24.17
2022-11-20T11:07:46.572Z,24.00
2022-11-20T11:09:54.987Z,25.60
2022-11-20T11:11:58.501Z,23.05
2022-11-20T11:14:10.715Z,20.63
2022-11-20T11:16:24.428Z,24.60
2022-11-20T11:18:31.784Z,20.15
2022-11-20T11:20:33.671Z,22.83
2022-11-20T11:22:46.237Z,21.42
2022-11-20T11:24:54.919Z,25.05
2022-11-20T11:27:16.517Z,24.48
2022-11-20T11:29:20.276Z,14.38
2022-11-20T11:31:31.850Z,22.52
2022-11-20T11:33:37.016Z,18.03
2022-11-20T11:35:58.305Z,14.90
2022-11-20T11:38:08.095Z,16.90
2022-11-20T11:40:27.591Z,19.92
2022-11-20T11:42:31.152Z,17.67
2022-11-20T11:44:54.148Z,18.58
2022-11-20T11:46:57.391Z,21.50
2022-11-20T11:49:11.088Z,15.98
2022-11-20T11:51:12.898Z,12.55
2022-11-20T11:53:18.076Z,17.52
2022-11-20T11:55:22.915Z,18.63
2022-11-20T11:57:31.295Z,9.98
2022-11-20T12:00:08.068Z,10.73
2022-11-20T12:02:37.249Z,14.05
2022-11-20T12:04:47.345Z,17.70
2022-11-20T12:06:58.872Z,15.65
2022-11-20T12:09:09.473Z,16.67
2022-11-20T12:11:11.610Z,19.77
2022-11-20T12:13:33.615Z,10.48
2022-11-20T12:15:35.750Z,17.95
2022-11-20T12:17:37.704Z,20.27
2022-11-20T12:19:39.997Z,20.65
2022-11-20T12:24:33.444Z,12.05
2022-11-20T12:27:02.229Z,16.13
2022-11-20T12:29:07.091Z,17.85
2022-11-20T12:31:43.746Z,17.73
2022-11-20T12:34:11.786Z,15.75
2022-11-20T12:37:03.161Z,17.27
2022-11-20T12:39:25.950Z,18.27
2022-11-20T12:42:04.080Z,21.98
2022-11-20T12:44:44.183Z,14.02
2022-11-20T12:46:50.280Z,16.20
2022-11-20T12:49:18.744Z,17.27
2022-11-20T12:51:43.025Z,16.23
2022-11-20T12:54:15.359Z,16.45
2022-11-20T12:56:20.218Z,17.15
2022-11-20T12:58:57.593Z,9.25
2022-11-20T13:01:33.547Z,15.25
2022-11-20T13:03:48.273Z,18.98
2022-11-20T13:06:04.640Z,19.17
2022-11-20T13:08:16.397Z,16.67
2022-11-20T13:10:42.767Z,20.40
2022-11-20T13:13:18.114Z,15.70
2022-11-20T13:15:37.759Z,15.48
2022-11-20T13:17:44.574Z,15.98
2022-11-20T13:19:54.545Z,15.82
2022-11-20T13:21:56.700Z,18.88
2022-11-20T13:24:06.327Z,19.75
2022-11-20T13:26:18.283Z,16.40
2022-11-20T13:28:20.095Z,21.15
2022-11-20T13:30:26.836Z,13.70
2022-11-20T13:32:33.196Z,16.38
2022-11-20T13:34:36.918Z,9.63
2022-11-20T13:36:54.047Z,14.43
2022-11-20T13:38:57.243Z,11.40
2022-11-20T13:41:21.279Z,14.65
2022-11-20T13:43:27.258Z,15.40
2022-11-20T13:45:32.123Z,11.20
2022-11-20T13:47:36.922Z,14.30
2022-11-20T13:49:45.739Z,14.65
2022-11-20T13:51:56.892Z,10.38
2022-11-20T13:54:23.546Z,10.82
2022-11-20T13:56:45.569Z,12.73
2022-11-20T13:58:56.378Z,15.10
2022-11-20T14:01:06.650Z,11.52
2022-11-20T14:03:17.256Z,15.02
2022-11-20T14:05:23.230Z,15.60
2022-11-20T14:07:33.023Z,16.23
2022-11-20T14:09:35.314Z,16.08
2022-11-20T14:11:37.186Z,15.90
2022-11-20T14:13:39.007Z,20.17
2022-11-20T14:15:44.838Z,18.10
2022-11-20T14:17:47.197Z,18.50
2022-11-20T14:19:51.924Z,16.98
2022-11-20T14:22:07.134Z,16.63
2022-11-20T14:24:12.626Z,16.10
2022-11-20T14:26:21.250Z,14.48
2022-11-20T14:28:28.652Z,14.82
2022-11-20T14:30:48.751Z,15.15
2022-11-20T14:32:52.026Z,14.65
2022-11-20T14:34:54.024Z,12.18
2022-11-20T14:39:01.999Z,14.65
2022-11-20T14:41:17.713Z,12.60
2022-11-20T14:43:29.316Z,13.15
2022-11-20T14:45:31.330Z,12.32
2022-11-20T14:49:37.582Z,11.52
2022-11-20T14:51:47.441Z,9.25
2022-11-20T14:53:49.461Z,10.27
2022-11-20T14:58:22.485Z,10.40
2022-11-20T15:00:25.164Z,12.57
2022-11-20T15:02:27.060Z,11.98
2022-11-20T15:04:29.188Z,13.18
2022-11-20T15:06:32.358Z,12.05
2022-11-20T15:08:35.092Z,12.65
2022-11-20T15:10:38.070Z,14.65
2022-11-20T15:12:47.161Z,14.10
2022-11-20T15:14:49.549Z,13.48
2022-11-20T15:16:52.120Z,16.00
2022-11-20T15:18:54.022Z,15.50
2022-11-20T15:20:57.726Z,22.02
2022-11-20T15:22:59.663Z,16.25
2022-11-20T15:25:01.511Z,13.23
2022-11-20T15:27:03.394Z,15.40
2022-11-20T15:29:05.563Z,17.20
2022-11-20T15:31:07.511Z,15.75
2022-11-20T15:35:11.810Z,14.63
2022-11-20T15:37:13.644Z,16.15
2022-11-20T15:39:15.648Z,13.07
2022-11-20T15:43:19.690Z,10.75
2022-11-20T15:45:21.534Z,6.70
2022-11-20T15:47:31.605Z,7.47
2022-11-20T15:49:33.478Z,9.10
2022-11-20T15:51:40.855Z,12.52
2022-11-20T15:53:43.325Z,11.55
2022-11-20T15:55:45.220Z,11.75
2022-11-20T15:57:47.106Z,9.00
2022-11-20T15:59:49.107Z,10.70
2022-11-20T16:03:54.668Z,8.73
2022-11-20T16:05:56.568Z,8.60
2022-11-20T16:07:58.676Z,10.45
2022-11-20T16:10:00.670Z,10.43
2022-11-20T16:14:23.649Z,10.00
2022-11-20T16:16:34.842Z,13.48
2022-11-20T16:18:39.549Z,11.73
2022-11-20T16:20:48.347Z,12.18
2022-11-20T16:22:56.913Z,12.45
2022-11-20T16:25:01.971Z,14.13
2022-11-20T16:27:11.900Z,24.17
2022-11-20T16:29:14.987Z,12.88
2022-11-20T16:31:29.135Z,15.43
2022-11-20T16:33:30.946Z,12.63
2022-11-20T16:35:39.042Z,21.08
2022-11-20T16:37:55.703Z,19.98
2022-11-20T16:40:18.358Z,17.88
2022-11-20T16:42:29.870Z,17.83
2022-11-20T16:44:31.861Z,14.77
2022-11-20T16:48:55.512Z,9.25
2022-11-20T16:50:57.347Z,10.55
2022-11-20T16:53:11.081Z,11.07
2022-11-20T16:55:13.112Z,8.85
2022-11-20T16:59:25.632Z,10.35
2022-11-20T17:01:37.605Z,10.60
2022-11-20T17:03:47.858Z,11.63
2022-11-20T17:05:53.064Z,11.80
2022-11-20T17:08:04.327Z,11.82
2022-11-20T17:10:15.127Z,13.55
2022-11-20T17:12:29.206Z,13.35
2022-11-20T17:14:39.874Z,19.48
2022-11-20T17:16:45.215Z,16.50
2022-11-20T17:19:06.271Z,7.90
2022-11-20T17:21:23.633Z,12.25
2022-11-20T17:23:42.602Z,15.07
2022-11-20T17:26:06.465Z,11.43
2022-11-20T17:28:27.129Z,9.80
2022-11-20T17:30:47.217Z,9.48
2022-11-20T17:33:22.289Z,12.52
2022-11-20T17:35:45.814Z,11.15
2022-11-20T17:38:12.078Z,37.30
2022-11-20T17:40:32.942Z,18.00
2022-11-20T17:42:40.743Z,24.67
2022-11-20T17:45:00.559Z,15.63
2022-11-20T17:47:05.489Z,22.60
2022-11-20T17:49:13.243Z,16.58
2022-11-20T17:51:45.269Z,11.77
2022-11-20T17:59:13.110Z,9.07
2022-11-20T18:01:24.722Z,8.95
2022-11-20T18:03:29.607Z,7.80
2022-11-20T18:05:40.171Z,9.98
2022-11-20T18:07:44.889Z,9.15
2022-11-20T18:09:52.632Z,10.27
2022-11-20T18:12:12.419Z,10.63
2022-11-20T18:14:29.263Z,10.90
2022-11-20T18:16:46.268Z,8.95
2022-11-20T18:19:02.841Z,10.05
2022-11-20T18:21:04.760Z,9.85
2022-11-20T18:23:09.538Z,10.88
2022-11-20T18:25:26.474Z,12.00
2022-11-20T18:27:31.138Z,10.00
2022-11-20T18:29:36.274Z,11.50
2022-11-20T18:31:44.062Z,11.32
2022-11-20T18:34:01.484Z,9.35
2022-11-20T18:36:20.534Z,10.60
2022-11-20T18:38:28.446Z,10.10
2022-11-20T18:40:37.266Z,10.32
2022-11-20T18:42:57.902Z,10.20
2022-11-20T18:45:00.360Z,10.70
2022-11-20T18:47:04.871Z,9.23
2022-11-20T18:49:10.487Z,8.93
2022-11-20T18:51:16.325Z,10.45
2022-11-20T18:53:18.168Z,11.45
2022-11-20T18:55:20.285Z,10.15
2022-11-20T18:59:25.160Z,9.65
2022-11-20T19:01:27.379Z,10.70
2022-11-20T19:03:29.357Z,10.48
2022-11-20T19:05:31.252Z,10.63
2022-11-20T19:07:33.174Z,13.27
2022-11-20T19:11:38.430Z,12.70
2022-11-20T19:13:44.428Z,11.50
2022-11-20T19:15:49.978Z,12.38
2022-11-20T19:18:01.296Z,12.77
2022-11-20T19:20:03.694Z,13.70
2022-11-20T19:22:05.778Z,11.43
2022-11-20T19:24:09.252Z,12.50
2022-11-20T19:26:11.078Z,13.80
2022-11-20T19:28:12.928Z,13.55
2022-11-20T19:30:15.085Z,11.55
2022-11-20T19:32:17.043Z,15.45
2022-11-20T19:34:18.997Z,14.45
2022-11-20T19:38:25.544Z,16.17
2022-11-20T19:40:27.373Z,14.70
2022-11-20T19:42:29.332Z,12.80
2022-11-20T19:46:36.684Z,13.30
2022-11-20T19:48:38.710Z,18.23
2022-11-20T19:52:45.289Z,13.23
2022-11-20T19:54:47.200Z,13.63
2022-11-20T19:56:50.590Z,12.50
2022-11-20T19:58:56.738Z,13.10
2022-11-20T20:01:05.311Z,12.50
2022-11-20T20:03:07.253Z,11.80
2022-11-20T20:05:09.362Z,12.18
2022-11-20T20:09:13.845Z,10.52
2022-11-20T20:11:18.622Z,11.40
2022-11-20T20:13:21.877Z,13.63
2022-11-20T20:15:23.784Z,12.68
2022-11-20T20:17:25.622Z,12.98
2022-11-20T20:19:27.644Z,11.43
2022-11-20T20:23:32.866Z,14.38
2022-11-20T20:25:38.274Z,15.02
2022-11-20T20:27:40.168Z,13.55
2022-11-20T20:29:42.234Z,16.48
2022-11-20T20:33:47.733Z,13.25
2022-11-20T20:35:50.354Z,14.20
2022-11-20T20:37:53.589Z,14.23
2022-11-20T20:39:55.597Z,15.35
2022-11-20T20:44:18.188Z,14.27
2022-11-20T20:46:20.541Z,15.25
2022-11-20T20:48:26.949Z,15.93
2022-11-20T20:50:29.284Z,13.60
2022-11-20T20:52:31.251Z,16.13
2022-11-20T20:56:36.630Z,15.65
2022-11-20T20:58:39.368Z,15.88
2022-11-20T21:00:41.244Z,12.93
2022-11-20T21:02:43.287Z,13.07
2022-11-20T21:06:47.300Z,12.05
2022-11-20T21:08:52.225Z,15.20
2022-11-20T21:11:03.049Z,12.50
2022-11-20T21:13:05.969Z,18.67
2022-11-20T21:15:08.119Z,17.05
2022-11-20T21:17:15.144Z,16.98
2022-11-20T21:19:17.714Z,14.68
2022-11-20T21:21:38.022Z,15.60
2022-11-20T21:23:43.815Z,16.85
2022-11-20T21:25:45.712Z,19.05
2022-11-20T21:27:47.592Z,22.02
2022-11-20T21:29:49.431Z,22.25
2022-11-20T21:31:52.970Z,18.05
2022-11-20T21:33:56.756Z,19.10
2022-11-20T21:35:59.047Z,19.25
2022-11-20T21:38:01.114Z,20.92
2022-11-20T21:42:04.910Z,16.33
2022-11-20T21:44:30.048Z,19.08
2022-11-20T21:46:33.079Z,19.73
2022-11-20T21:48:36.845Z,21.63
2022-11-20T21:50:38.742Z,25.08
2022-11-20T21:52:40.771Z,18.02
2022-11-20T21:56:44.355Z,20.55
2022-11-20T21:58:48.040Z,20.70
2022-11-20T22:00:50.368Z,21.77
2022-11-20T22:02:52.215Z,18.85
2022-11-20T22:04:54.119Z,17.83
2022-11-20T22:06:55.995Z,22.73
2022-11-20T22:08:58.097Z,24.05
2022-11-20T22:13:21.671Z,17.45
2022-11-20T22:15:53.218Z,23.67
2022-11-20T22:18:04.007Z,30.70
2022-11-20T22:20:06.529Z,21.95
2022-11-20T22:22:08.653Z,24.25
2022-11-20T22:24:17.270Z,25.55
2022-11-20T22:26:21.622Z,21.02
2022-11-20T22:28:23.691Z,16.42
2022-11-20T22:34:30.123Z,22.00
2022-11-20T22:36:32.981Z,21.77
2022-11-20T22:38:39.243Z,15.38
2022-11-20T22:40:43.933Z,21.83
2022-11-20T22:42:46.671Z,30.60
2022-11-20T22:44:48.694Z,19.23
2022-11-20T22:48:54.476Z,19.45
2022-11-20T22:51:06.663Z,26.77
2022-11-20T22:55:16.140Z,25.25
2022-11-20T22:57:19.330Z,16.92
2022-11-20T22:59:21.789Z,23.33
2022-11-20T23:01:26.302Z,31.75
2022-11-20T23:03:28.226Z,21.27
2022-11-20T23:05:34.602Z,14.75
2022-11-20T23:07:40.845Z,21.95
2022-11-20T23:09:43.052Z,20.60
2022-11-20T23:11:44.941Z,18.95
2022-11-20T23:13:47.403Z,17.13
2022-11-20T23:15:49.235Z,20.55
2022-11-20T23:17:51.122Z,16.95
2022-11-20T23:20:01.102Z,19.52
2022-11-20T23:22:04.124Z,20.67
2022-11-20T23:24:06.776Z,25.52
2022-11-20T23:26:11.281Z,19.92
2022-11-20T23:28:13.127Z,23.35
2022-11-20T23:30:15.586Z,26.65
2022-11-20T23:32:17.591Z,17.88
2022-11-20T23:36:21.733Z,24.52
2022-11-20T23:38:23.882Z,13.73
2022-11-20T23:40:25.744Z,17.25
2022-11-20T23:42:27.673Z,16.67
2022-11-20T23:44:29.783Z,16.35
2022-11-20T23:46:31.764Z,16.13
2022-11-20T23:48:35.995Z,15.95
2022-11-20T23:50:38.117Z,18.42
2022-11-20T23:52:40.067Z,17.55
2022-11-20T23:54:41.960Z,23.27
2022-11-20T23:56:43.862Z,14.00
2022-11-20T23:58:45.781Z,14.85
